createdAt,value
2023-11-10T00:00:33.702Z,13.18
2023-11-10T00:03:56.914Z,12.73
2023-11-10T00:10:05.305Z,13.00
2023-11-10T00:13:09.510Z,13.18
2023-11-10T00:16:12.736Z,13.68
2023-11-10T00:22:19.079Z,13.63
2023-11-10T00:25:22.217Z,13.90
2023-11-10T00:28:25.434Z,14.70
2023-11-10T00:31:43.224Z,12.68
2023-11-10T00:34:51.177Z,14.07
2023-11-10T00:37:54.386Z,14.02
2023-11-10T00:40:57.476Z,13.62
2023-11-10T00:44:00.636Z,13.25
2023-11-10T00:47:04.206Z,13.95
2023-11-10T00:50:07.909Z,14.20
2023-11-10T00:53:10.870Z,13.38
2023-11-10T00:56:13.910Z,14.18
2023-11-10T00:59:19.654Z,13.73
2023-11-10T01:02:22.734Z,13.68
2023-11-10T01:05:26.369Z,14.25
2023-11-10T01:08:29.515Z,15.13
2023-11-10T01:11:34.029Z,14.02
2023-11-10T01:14:37.310Z,14.38
2023-11-10T01:17:41.829Z,14.27
2023-11-10T01:20:46.188Z,13.07
2023-11-10T01:23:51.767Z,12.63
2023-11-10T01:27:02.115Z,13.70
2023-11-10T01:30:05.781Z,14.05
2023-11-10T01:33:09.553Z,14.10
2023-11-10T01:36:12.724Z,14.07
2023-11-10T01:39:15.837Z,14.13
2023-11-10T01:42:19.464Z,14.40
2023-11-10T01:45:22.641Z,14.95
2023-11-10T01:48:26.963Z,14.57
2023-11-10T01:51:32.341Z,16.02
2023-11-10T01:54:37.079Z,14.80
2023-11-10T01:57:40.282Z,14.23
2023-11-10T02:03:46.871Z,15.57
2023-11-10T02:06:49.901Z,14.75
2023-11-10T02:09:53.433Z,14.30
2023-11-10T02:12:57.872Z,14.63
2023-11-10T02:16:01.165Z,14.87
2023-11-10T02:19:05.183Z,15.48
2023-11-10T02:22:08.684Z,14.68
2023-11-10T02:25:17.824Z,15.95
2023-11-10T02:28:21.336Z,14.57
2023-11-10T02:31:24.236Z,14.63
2023-11-10T02:34:28.023Z,14.32
2023-11-10T02:37:30.909Z,14.30
2023-11-10T02:40:36.977Z,14.48
2023-11-10T02:43:39.942Z,15.15
2023-11-10T02:46:44.937Z,14.57
2023-11-10T02:49:47.715Z,14.57
2023-11-10T02:55:53.447Z,14.00
2023-11-10T02:58:57.303Z,14.27
2023-11-10T03:02:00.079Z,15.70
2023-11-10T03:05:04.084Z,15.77
2023-11-10T03:08:07.263Z,15.25
2023-11-10T03:11:25.388Z,14.98
2023-11-10T03:14:31.101Z,14.25
2023-11-10T03:17:35.039Z,14.25
2023-11-10T03:23:40.940Z,15.15
2023-11-10T03:26:43.669Z,14.55
2023-11-10T03:32:50.249Z,14.10
2023-11-10T03:35:54.245Z,14.57
2023-11-10T03:38:56.987Z,14.60
2023-11-10T03:45:05.349Z,14.00
2023-11-10T03:48:09.112Z,14.80
2023-11-10T03:51:12.821Z,14.18
2023-11-10T03:54:16.494Z,15.07
2023-11-10T03:57:19.283Z,14.77
2023-11-10T04:03:43.865Z,14.57
2023-11-10T04:06:47.075Z,14.25
2023-11-10T04:09:50.346Z,15.25
2023-11-10T04:12:53.665Z,15.32
2023-11-10T04:19:01.185Z,15.73
2023-11-10T04:22:04.302Z,15.05
2023-11-10T04:25:07.682Z,15.02
2023-11-10T04:31:17.464Z,13.65
2023-11-10T04:34:20.808Z,14.23
2023-11-10T04:37:24.412Z,15.05
2023-11-10T04:40:29.371Z,14.52
2023-11-10T04:43:32.471Z,13.82
2023-11-10T04:46:45.369Z,14.18
2023-11-10T04:49:49.590Z,14.32
2023-11-10T04:52:53.179Z,14.50
2023-11-10T04:56:02.273Z,13.95
2023-11-10T04:59:05.387Z,14.13
2023-11-10T05:02:10.215Z,14.20
2023-11-10T05:05:14.673Z,13.95
2023-11-10T05:08:17.753Z,19.65
2023-11-10T05:11:20.776Z,14.32
2023-11-10T05:14:24.011Z,14.70
2023-11-10T05:17:26.927Z,14.82
2023-11-10T05:20:33.601Z,14.60
2023-11-10T05:23:42.129Z,15.18
2023-11-10T05:26:45.989Z,13.77
2023-11-10T05:29:48.952Z,14.32
2023-11-10T05:32:51.955Z,14.20
2023-11-10T05:35:54.931Z,14.85
2023-11-10T05:38:58.109Z,15.88
2023-11-10T05:45:04.495Z,14.87
2023-11-10T05:48:07.585Z,15.73
2023-11-10T05:51:10.572Z,17.15
2023-11-10T05:54:15.124Z,16.02
2023-11-10T05:57:18.711Z,16.58
2023-11-10T06:00:23.656Z,16.90
2023-11-10T06:03:28.510Z,17.23
2023-11-10T06:06:31.638Z,17.27
2023-11-10T06:12:39.359Z,16.35
2023-11-10T06:15:42.748Z,15.85
2023-11-10T06:18:47.061Z,17.08
2023-11-10T06:21:52.125Z,16.15
2023-11-10T06:24:55.136Z,17.70
2023-11-10T06:31:01.012Z,16.10
2023-11-10T06:34:04.758Z,17.83
2023-11-10T06:37:07.502Z,17.35
2023-11-10T06:40:11.981Z,17.05
2023-11-10T06:43:14.671Z,17.23
2023-11-10T06:46:24.932Z,16.77
2023-11-10T06:49:27.851Z,17.00
2023-11-10T06:52:32.205Z,16.87
2023-11-10T06:55:35.726Z,17.08
2023-11-10T06:58:40.668Z,17.35
2023-11-10T07:01:44.120Z,16.48
2023-11-10T07:04:47.358Z,18.12
2023-11-10T07:07:52.301Z,17.67
2023-11-10T07:10:59.314Z,16.83
2023-11-10T07:14:03.916Z,17.23
2023-11-10T07:17:07.541Z,17.30
2023-11-10T07:20:16.074Z,17.65
2023-11-10T07:23:26.305Z,17.48
2023-11-10T07:26:30.019Z,17.35
2023-11-10T07:29:37.897Z,16.45
2023-11-10T07:32:40.613Z,17.05
2023-11-10T07:35:43.998Z,15.70
2023-11-10T07:38:46.744Z,15.50
2023-11-10T07:44:52.623Z,15.30
2023-11-10T07:47:59.054Z,14.75
2023-11-10T07:51:03.435Z,15.65
2023-11-10T07:54:09.438Z,14.20
2023-11-10T07:57:12.887Z,15.60
2023-11-10T08:00:21.395Z,14.93
2023-11-10T08:03:27.411Z,15.00
2023-11-10T08:06:31.689Z,15.25
2023-11-10T08:09:36.123Z,14.85
2023-11-10T08:12:41.935Z,13.80
2023-11-10T08:15:49.304Z,14.70
2023-11-10T08:18:57.644Z,14.80
2023-11-10T08:22:03.919Z,13.82
2023-11-10T08:25:07.806Z,14.63
2023-11-10T08:28:10.821Z,13.50
2023-11-10T08:34:18.545Z,12.95
2023-11-10T08:37:21.642Z,12.48
2023-11-10T08:40:24.704Z,12.60
2023-11-10T08:43:27.768Z,12.93
2023-11-10T08:46:31.477Z,13.00
2023-11-10T08:49:34.432Z,13.62
2023-11-10T08:52:39.911Z,13.15
2023-11-10T08:55:43.464Z,14.00
2023-11-10T08:58:46.413Z,13.95
2023-11-10T09:01:50.471Z,12.73
2023-11-10T09:04:53.597Z,13.52
2023-11-10T09:07:56.976Z,12.88
2023-11-10T09:11:00.076Z,12.55
2023-11-10T09:14:04.520Z,12.77
2023-11-10T09:17:08.546Z,11.98
2023-11-10T09:23:17.859Z,12.52
2023-11-10T09:26:25.889Z,12.65
2023-11-10T09:29:29.180Z,11.82
2023-11-10T09:32:37.807Z,11.02
2023-11-10T09:35:43.224Z,11.50
2023-11-10T09:38:49.135Z,11.57
2023-11-10T09:41:57.889Z,11.07
2023-11-10T09:45:03.104Z,11.35
2023-11-10T09:48:09.622Z,11.93
2023-11-10T09:51:14.575Z,11.75
2023-11-10T09:54:20.948Z,11.90
2023-11-10T09:57:29.260Z,11.70
2023-11-10T10:00:34.371Z,12.68
2023-11-10T10:03:38.527Z,12.02
2023-11-10T10:06:51.687Z,13.70
2023-11-10T10:09:56.771Z,10.93
2023-11-10T10:12:59.490Z,12.48
2023-11-10T10:16:07.444Z,11.43
2023-11-10T10:19:14.906Z,11.32
2023-11-10T10:22:29.435Z,12.35
2023-11-10T10:25:58.637Z,11.80
2023-11-10T10:29:02.374Z,10.82
2023-11-10T10:35:08.876Z,11.00
2023-11-10T10:38:15.439Z,10.27
2023-11-10T10:41:21.836Z,10.32
2023-11-10T10:44:25.047Z,10.45
2023-11-10T10:47:29.250Z,10.00
2023-11-10T10:50:34.562Z,10.65
2023-11-10T10:53:40.511Z,10.13
2023-11-10T10:56:45.786Z,9.90
2023-11-10T10:59:51.060Z,10.43
2023-11-10T11:03:00.402Z,10.07
2023-11-10T11:06:28.562Z,10.20
2023-11-10T11:09:37.351Z,10.43
2023-11-10T11:13:20.488Z,10.82
2023-11-10T11:16:38.751Z,10.57
2023-11-10T11:19:44.400Z,9.13
2023-11-10T11:22:48.648Z,9.25
2023-11-10T11:26:01.925Z,9.73
2023-11-10T11:29:08.745Z,8.65
2023-11-10T11:32:20.783Z,9.52
2023-11-10T11:35:23.773Z,9.05
2023-11-10T11:41:31.391Z,8.63
2023-11-10T11:44:38.044Z,8.25
2023-11-10T11:47:41.636Z,8.25
2023-11-10T11:50:44.916Z,9.15
2023-11-10T11:53:47.525Z,8.77
2023-11-10T11:56:51.489Z,8.82
2023-11-10T11:59:56.384Z,8.27
2023-11-10T12:02:59.991Z,8.45
2023-11-10T12:06:05.267Z,8.63
2023-11-10T12:09:08.517Z,9.52
2023-11-10T12:12:25.462Z,8.70
2023-11-10T12:15:49.482Z,9.05
2023-11-10T12:18:57.215Z,8.95
2023-11-10T12:22:25.468Z,8.98
2023-11-10T12:25:47.346Z,9.68
2023-11-10T12:29:03.978Z,9.52
2023-11-10T12:32:09.017Z,8.45
2023-11-10T12:35:15.533Z,9.60
2023-11-10T12:38:18.517Z,7.93
2023-11-10T12:41:21.474Z,8.18
2023-11-10T12:44:25.159Z,8.52
2023-11-10T12:47:34.969Z,9.73
2023-11-10T12:50:38.298Z,8.90
2023-11-10T12:56:45.124Z,8.90
2023-11-10T13:02:51.047Z,8.35
2023-11-10T13:05:56.465Z,8.10
2023-11-10T13:09:00.565Z,10.70
2023-11-10T13:12:07.317Z,9.18
2023-11-10T13:15:10.691Z,8.25
2023-11-10T13:18:16.439Z,8.00
2023-11-10T13:21:23.485Z,8.32
2023-11-10T13:24:27.656Z,8.48
2023-11-10T13:27:31.917Z,7.70
2023-11-10T13:30:37.437Z,8.20
2023-11-10T13:33:43.830Z,8.52
2023-11-10T13:36:48.507Z,8.68
2023-11-10T13:39:53.781Z,9.13
2023-11-10T13:42:59.267Z,8.95
2023-11-10T13:46:02.516Z,9.25
2023-11-10T13:52:12.696Z,9.15
2023-11-10T13:55:15.757Z,8.85
2023-11-10T13:58:18.733Z,8.90
2023-11-10T14:01:21.818Z,9.43
2023-11-10T14:04:26.027Z,8.20
2023-11-10T14:07:29.045Z,8.88
2023-11-10T14:10:32.114Z,9.57
2023-11-10T14:13:39.187Z,8.95
2023-11-10T14:16:42.359Z,8.30
2023-11-10T14:19:45.286Z,8.45
2023-11-10T14:22:48.277Z,8.75
2023-11-10T14:25:51.576Z,8.93
2023-11-10T14:28:54.979Z,8.85
2023-11-10T14:32:00.187Z,9.30
2023-11-10T14:35:04.398Z,8.65
2023-11-10T14:38:09.465Z,8.90
2023-11-10T14:41:12.541Z,8.20
2023-11-10T14:44:16.033Z,8.45
2023-11-10T14:47:20.850Z,8.95
2023-11-10T14:50:50.262Z,8.70
2023-11-10T14:53:53.257Z,9.75
2023-11-10T14:56:56.200Z,8.88
2023-11-10T14:59:59.185Z,9.30
2023-11-10T15:03:05.311Z,9.18
2023-11-10T15:06:09.181Z,8.93
2023-11-10T15:09:13.680Z,9.23
2023-11-10T15:12:16.715Z,9.00
2023-11-10T15:15:19.876Z,8.90
2023-11-10T15:18:25.074Z,9.52
2023-11-10T15:21:28.591Z,9.63
2023-11-10T15:24:32.546Z,10.05
2023-11-10T15:27:35.945Z,8.93
2023-11-10T15:30:39.528Z,8.55
2023-11-10T15:33:42.570Z,9.23
2023-11-10T15:36:56.115Z,9.13
2023-11-10T15:40:00.846Z,9.75
2023-11-10T15:43:07.145Z,10.90
2023-11-10T15:46:10.244Z,10.38
2023-11-10T15:49:15.603Z,10.48
2023-11-10T15:52:19.603Z,10.25
2023-11-10T15:55:22.864Z,10.73
2023-11-10T15:58:25.813Z,9.52
2023-11-10T16:01:28.932Z,10.27
2023-11-10T16:04:32.408Z,11.23
2023-11-10T16:07:36.056Z,12.15
2023-11-10T16:10:39.705Z,11.70
2023-11-10T16:13:42.903Z,11.50
2023-11-10T16:19:48.878Z,11.65
2023-11-10T16:25:55.244Z,11.07
2023-11-10T16:29:06.807Z,11.25
2023-11-10T16:32:10.050Z,12.32
2023-11-10T16:35:13.534Z,11.82
2023-11-10T16:38:18.638Z,10.90
2023-11-10T16:41:27.489Z,10.68
2023-11-10T16:44:30.190Z,11.70
2023-11-10T16:50:37.365Z,11.83
2023-11-10T16:53:40.598Z,10.82
2023-11-10T16:56:43.302Z,11.18
2023-11-10T16:59:46.974Z,10.90
2023-11-10T17:02:52.495Z,11.38
2023-11-10T17:05:59.080Z,11.35
2023-11-10T17:09:02.012Z,11.32
2023-11-10T17:12:07.977Z,10.00
2023-11-10T17:15:12.304Z,10.55
2023-11-10T17:18:18.303Z,10.38
2023-11-10T17:24:25.472Z,10.80
2023-11-10T17:27:28.424Z,10.32
2023-11-10T17:33:40.280Z,10.77
2023-11-10T17:36:49.525Z,15.95
2023-11-10T17:39:53.986Z,12.43
2023-11-10T17:42:57.354Z,11.15
2023-11-10T17:46:00.314Z,11.60
2023-11-10T17:49:04.099Z,10.32
2023-11-10T17:52:07.538Z,11.30
2023-11-10T17:55:14.249Z,12.13
2023-11-10T17:58:24.055Z,11.20
2023-11-10T18:01:28.621Z,11.63
2023-11-10T18:09:27.797Z,12.50
2023-11-10T18:12:38.600Z,13.23
2023-11-10T18:15:41.808Z,12.07
2023-11-10T18:18:44.997Z,14.10
2023-11-10T18:21:48.156Z,12.27
2023-11-10T18:25:04.484Z,12.63
2023-11-10T18:28:07.530Z,13.20
2023-11-10T18:31:10.530Z,13.35
2023-11-10T18:34:14.754Z,13.98
2023-11-10T18:37:18.151Z,12.90
2023-11-10T18:46:31.449Z,13.70
2023-11-10T18:49:34.518Z,13.30
2023-11-10T18:52:37.500Z,14.65
2023-11-10T18:55:40.651Z,13.98
2023-11-10T18:58:43.598Z,13.60
2023-11-10T19:01:46.691Z,13.90
2023-11-10T19:04:51.072Z,14.48
2023-11-10T19:07:54.128Z,14.13
2023-11-10T19:10:57.054Z,13.25
2023-11-10T19:14:01.304Z,13.85
2023-11-10T19:17:05.840Z,14.07
2023-11-10T19:20:09.109Z,15.02
2023-11-10T19:23:11.999Z,14.68
2023-11-10T19:26:15.880Z,14.52
2023-11-10T19:29:18.739Z,22.40
2023-11-10T19:32:22.560Z,17.58
2023-11-10T19:35:26.008Z,14.90
2023-11-10T19:41:32.845Z,14.15
2023-11-10T19:44:37.151Z,15.80
2023-11-10T19:47:40.383Z,20.85
2023-11-10T19:50:43.297Z,17.87
2023-11-10T19:54:56.547Z,18.80
2023-11-10T19:57:11.030Z,18.52
2023-11-10T20:03:21.583Z,17.48
2023-11-10T20:06:24.722Z,16.67
2023-11-10T20:09:28.748Z,15.52
2023-11-10T20:12:32.758Z,16.27
2023-11-10T20:15:36.659Z,16.60
2023-11-10T20:18:39.829Z,16.08
2023-11-10T20:21:42.926Z,15.25
2023-11-10T20:24:46.466Z,16.25
2023-11-10T20:27:49.607Z,16.27
2023-11-10T20:30:53.010Z,15.15
2023-11-10T20:33:57.463Z,14.82
2023-11-10T20:37:02.944Z,14.35
2023-11-10T20:40:11.042Z,14.20
2023-11-10T20:43:17.133Z,14.73
2023-11-10T20:46:20.808Z,14.00
2023-11-10T20:49:39.622Z,14.15
2023-11-10T20:52:45.079Z,14.38
2023-11-10T20:55:47.965Z,14.52
2023-11-10T20:59:21.901Z,13.43
2023-11-10T21:05:27.845Z,13.38
2023-11-10T21:08:30.797Z,13.90
2023-11-10T21:11:33.967Z,14.43
2023-11-10T21:14:37.003Z,14.02
2023-11-10T21:17:40.240Z,14.43
2023-11-10T21:20:46.494Z,48.97
2023-11-10T21:23:50.035Z,31.87
2023-11-10T21:26:52.988Z,16.02
2023-11-10T21:29:55.973Z,16.00
2023-11-10T21:33:00.434Z,14.87
2023-11-10T21:36:04.081Z,14.38
2023-11-10T21:39:12.306Z,14.65
2023-11-10T21:42:15.402Z,13.62
2023-11-10T21:45:19.407Z,14.82
2023-11-10T21:48:22.616Z,13.88
2023-11-10T21:51:25.744Z,15.35
2023-11-10T21:54:30.081Z,16.05
2023-11-10T21:57:33.170Z,15.10
2023-11-10T22:00:36.507Z,13.98
2023-11-10T22:03:42.334Z,14.02
2023-11-10T22:06:45.875Z,12.80
2023-11-10T22:09:49.158Z,12.52
2023-11-10T22:12:54.403Z,13.65
2023-11-10T22:15:57.567Z,13.27
2023-11-10T22:19:00.502Z,12.77
2023-11-10T22:22:04.824Z,13.02
2023-11-10T22:25:11.860Z,11.98
2023-11-10T22:28:21.109Z,12.23
2023-11-10T22:31:24.095Z,12.18
2023-11-10T22:34:27.882Z,12.57
2023-11-10T22:37:32.634Z,11.63
2023-11-10T22:40:37.167Z,12.70
2023-11-10T22:43:40.887Z,11.27
2023-11-10T22:46:44.793Z,12.05
2023-11-10T22:49:48.652Z,12.13
2023-11-10T22:52:52.488Z,11.93
2023-11-10T22:55:55.455Z,11.88
2023-11-10T22:59:02.076Z,11.35
2023-11-10T23:02:05.921Z,11.90
2023-11-10T23:05:11.155Z,11.45
2023-11-10T23:08:14.356Z,11.80
2023-11-10T23:11:17.620Z,12.02
2023-11-10T23:14:21.536Z,11.23
2023-11-10T23:17:25.110Z,11.60
2023-11-10T23:20:34.481Z,12.15
2023-11-10T23:23:38.744Z,12.60
2023-11-10T23:26:41.699Z,11.90
2023-11-10T23:29:45.039Z,11.38
2023-11-10T23:32:49.074Z,12.15
2023-11-10T23:36:01.596Z,12.50
2023-11-10T23:39:05.010Z,12.95
2023-11-10T23:42:09.310Z,16.80
2023-11-10T23:45:12.022Z,15.02
2023-11-10T23:48:15.415Z,14.48
2023-11-10T23:51:18.248Z,14.40
2023-11-10T23:57:24.270Z,13.68
